Time;durP1;ratioP1;P1;durP2;ratioP2;P2;SDS_P1;SDS_P2;PMS_P1;PMS_P2;Temp;Humidity;BMP_temperature;BMP_pressure;BME280_temperature;BME280_humidity;BME280_pressure;Samples;Min_cycle;Max_cycle;Signal;HPM_P1;HPM_P2
2023/10/10 00:00:24;;;;;;;1.48;1.15;;;;;;;14.22;47.70;93760.00;530447;27;952;-47
2023/10/10 00:00:47;;;;;;;1.88;1.33;;;;;;;14.22;47.63;93757.22;530412;27;1067;-49
2023/10/10 00:01:03;;;;;;;1.77;1.25;;;;;;;14.21;47.57;93758.50;530468;27;907;-47
2023/10/10 00:01:19;;;;;;;1.42;1.23;;;;;;;14.21;47.59;93756.47;530453;27;817;-52
2023/10/10 00:01:38;;;;;;;2.10;1.35;;;;;;;14.20;47.36;93754.28;530348;27;1050;-49
2023/10/10 00:01:54;;;;;;;4.20;1.73;;;;;;;14.19;47.57;93758.34;530443;27;857;-49
2023/10/10 00:02:18;;;;;;;3.35;1.65;;;;;;;14.18;47.56;93760.41;530412;27;1120;-48
2023/10/10 00:02:34;;;;;;;1.50;1.40;;;;;;;14.19;47.74;93763.91;530368;27;884;-48
2023/10/10 00:02:51;;;;;;;1.85;1.25;;;;;;;14.18;47.71;93762.44;530459;27;1615;-49
2023/10/10 00:03:08;;;;;;;2.60;1.33;;;;;;;14.18;47.75;93760.41;530369;27;1005;-49
2023/10/10 00:03:27;;;;;;;1.85;1.40;;;;;;;14.14;47.81;93757.25;530449;27;841;-49
2023/10/10 00:03:45;;;;;;;2.20;1.25;;;;;;;14.19;47.97;93767.41;530419;27;872;-49
2023/10/10 00:04:00;;;;;;;1.77;1.30;;;;;;;14.19;47.94;93763.91;530424;27;845;-48
2023/10/10 00:04:20;;;;;;;2.03;1.40;;;;;;;14.17;48.18;93761.69;530438;27;860;-48
2023/10/10 00:04:35;;;;;;;1.92;1.40;;;;;;;14.18;48.27;93759.66;530452;27;931;-48
2023/10/10 00:04:51;;;;;;;2.77;1.67;;;;;;;14.17;48.20;93756.13;530375;27;833;-50
2023/10/10 00:05:11;;;;;;;2.80;1.50;;;;;;;14.18;48.26;93760.41;530487;27;813;-47
2023/10/10 00:05:36;;;;;;;2.17;1.38;;;;;;;14.18;48.15;93762.44;530448;27;864;-48
2023/10/10 00:05:57;;;;;;;2.40;1.55;;;;;;;14.18;48.40;93756.88;530388;27;865;-48
2023/10/10 00:06:14;;;;;;;1.85;1.38;;;;;;;14.13;48.47;93758.56;530396;27;1110;-48
2023/10/10 00:06:29;;;;;;;2.58;1.35;;;;;;;14.17;48.34;93763.72;530533;27;903;-51
2023/10/10 00:06:44;;;;;;;2.70;1.40;;;;;;;14.17;48.39;93758.16;530352;27;1124;-49
2023/10/10 00:07:04;;;;;;;2.60;1.40;;;;;;;14.11;48.39;93749.31;530485;27;899;-49
2023/10/10 00:07:20;;;;;;;2.40;1.23;;;;;;;14.18;48.51;93759.66;530407;27;895;-49
2023/10/10 00:07:35;;;;;;;2.40;1.40;;;;;;;14.17;48.56;93758.16;530451;27;1003;-50
2023/10/10 00:07:51;;;;;;;1.93;1.43;;;;;;;14.16;48.59;93760.19;530351;27;813;-49
2023/10/10 00:08:10;;;;;;;1.80;1.47;;;;;;;14.16;48.47;93754.66;528121;28;809;-48
2023/10/10 00:08:33;;;;;;;2.60;1.80;;;;;;;14.08;48.47;93742.13;528128;28;864;-49
2023/10/10 00:08:50;;;;;;;2.25;1.38;;;;;;;14.16;48.47;93751.88;528109;28;826;-48
2023/10/10 00:09:09;;;;;;;3.00;1.25;;;;;;;14.17;48.37;93755.41;528203;28;879;-49
2023/10/10 00:09:26;;;;;;;3.15;1.50;;;;;;;13.98;48.46;93722.56;528082;28;1184;-49
2023/10/10 00:09:44;;;;;;;1.58;1.33;;;;;;;14.17;48.34;93750.59;528227;28;1096;-50
2023/10/10 00:09:59;;;;;;;1.95;1.17;;;;;;;14.18;48.35;93752.06;529207;27;872;-47
2023/10/10 00:10:15;;;;;;;2.53;1.50;;;;;;;14.18;48.49;93751.31;530400;27;869;-49
2023/10/10 00:10:32;;;;;;;2.28;1.52;;;;;;;14.19;48.24;93747.22;530453;27;1362;-48
2023/10/10 00:10:49;;;;;;;1.70;1.42;;;;;;;14.17;48.16;93747.81;530413;27;809;-47
2023/10/10 00:11:14;;;;;;;1.40;1.30;;;;;;;14.11;48.16;93738.22;530358;27;983;-48
2023/10/10 00:11:31;;;;;;;3.30;1.40;;;;;;;14.17;48.05;93752.63;530487;27;843;-49
2023/10/10 00:11:48;;;;;;;3.05;1.15;;;;;;;14.15;47.92;93749.66;530385;27;832;-50
2023/10/10 00:12:04;;;;;;;2.30;1.17;;;;;;;14.14;48.04;93748.94;530445;27;875;-47
2023/10/10 00:12:26;;;;;;;2.38;1.15;;;;;;;14.12;48.05;93743.19;530468;27;827;-48
2023/10/10 00:12:42;;;;;;;1.45;1.33;;;;;;;14.15;48.20;93753.19;530422;27;843;-50
2023/10/10 00:13:00;;;;;;;3.57;1.50;;;;;;;14.15;48.28;93744.13;530413;27;839;-47
2023/10/10 00:13:19;;;;;;;2.03;1.38;;;;;;;14.15;48.35;93752.44;530347;27;958;-48
2023/10/10 00:13:46;;;;;;;1.50;1.30;;;;;;;14.08;48.57;93733.78;530364;27;833;-48
2023/10/10 00:14:15;;;;;;;2.63;1.40;;;;;;;14.14;48.45;93745.44;530419;27;1627;-48
2023/10/10 00:14:30;;;;;;;3.67;1.30;;;;;;;14.17;48.68;93745.03;530458;27;863;-48
2023/10/10 00:14:50;;;;;;;1.67;1.13;;;;;;;14.18;48.60;93743.00;530381;27;1162;-49
2023/10/10 00:15:12;;;;;;;2.13;1.23;;;;;;;14.18;48.44;93743.00;530360;27;1621;-47
2023/10/10 00:15:35;;;;;;;1.60;1.15;;;;;;;14.17;48.39;93739.47;530397;27;907;-48
2023/10/10 00:15:51;;;;;;;1.35;1.20;;;;;;;14.16;48.46;93748.38;530313;27;856;-51
2023/10/10 00:16:08;;;;;;;1.80;1.55;;;;;;;14.16;48.46;93746.31;530419;27;830;-48
2023/10/10 00:16:26;;;;;;;2.38;1.75;;;;;;;14.10;48.44;93731.91;530389;27;993;-48
2023/10/10 00:16:41;;;;;;;4.30;1.50;;;;;;;14.16;48.29;93743.53;530308;27;1918;-48
2023/10/10 00:16:59;;;;;;;4.77;1.47;;;;;;;14.17;48.20;93744.28;530254;27;862;-49
2023/10/10 00:17:15;;;;;;;4.25;1.77;;;;;;;14.15;48.20;93739.31;530399;27;866;-48
2023/10/10 00:17:34;;;;;;;4.07;1.50;;;;;;;14.16;48.19;93749.09;530362;27;899;-47
2023/10/10 00:17:50;;;;;;;3.10;1.48;;;;;;;14.17;48.25;93747.06;530409;27;1041;-48
2023/10/10 00:18:11;;;;;;;2.20;1.48;;;;;;;14.16;48.08;93749.09;530389;27;880;-50
2023/10/10 00:18:29;;;;;;;3.58;1.30;;;;;;;14.03;48.22;93718.84;530380;27;885;-48
2023/10/10 00:18:44;;;;;;;2.97;1.23;;;;;;;14.17;48.41;93745.03;530310;27;1633;-48
2023/10/10 00:19:11;;;;;;;1.90;1.60;;;;;;;14.14;48.15;93746.16;530403;27;837;-48
2023/10/10 00:19:29;;;;;;;4.13;1.85;;;;;;;14.18;48.20;93746.50;530396;27;893;-48
2023/10/10 00:19:45;;;;;;;8.52;2.25;;;;;;;14.19;48.13;93744.44;530326;27;920;-48
2023/10/10 00:20:16;;;;;;;8.63;2.33;;;;;;;14.19;48.32;93747.22;530268;27;865;-48
2023/10/10 00:20:41;;;;;;;14.43;2.80;;;;;;;14.16;48.48;93748.38;530379;27;915;-50
2023/10/10 00:21:09;;;;;;;5.68;1.90;;;;;;;14.16;48.55;93748.38;530314;27;877;-49
2023/10/10 00:21:28;;;;;;;3.20;1.42;;;;;;;14.17;48.62;93747.81;528046;28;892;-48
2023/10/10 00:21:45;;;;;;;2.47;1.38;;;;;;;13.90;48.74;93705.22;528136;28;896;-49
2023/10/10 00:22:04;;;;;;;1.27;1.17;;;;;;;14.16;48.82;93746.31;528097;28;824;-48
2023/10/10 00:22:26;;;;;;;1.23;1.13;;;;;;;14.17;48.72;93739.47;527274;28;1109;-49
2023/10/10 00:22:46;;;;;;;2.45;1.50;;;;;;;14.15;48.66;93739.31;525982;28;904;-48
2023/10/10 00:23:04;;;;;;;2.72;1.48;;;;;;;14.18;48.81;93740.97;526661;28;971;-49
2023/10/10 00:23:20;;;;;;;4.55;1.08;;;;;;;14.19;48.85;93745.19;528279;28;930;-49
2023/10/10 00:23:47;;;;;;;6.70;1.67;;;;;;;14.19;48.88;93736.88;529949;27;1105;-48
2023/10/10 00:24:03;;;;;;;11.45;3.45;;;;;;;14.20;48.87;93745.94;528581;27;1147;-48
2023/10/10 00:24:30;;;;;;;3.58;1.83;;;;;;;14.19;48.76;93742.41;529179;27;1209;-47
2023/10/10 00:24:48;;;;;;;1.83;1.42;;;;;;;14.18;48.75;93740.22;530300;27;884;-48
2023/10/10 00:25:12;;;;;;;1.63;1.35;;;;;;;14.18;48.71;93745.78;530348;27;919;-48
2023/10/10 00:25:30;;;;;;;1.40;1.10;;;;;;;14.18;48.83;93745.78;530398;27;872;-48
2023/10/10 00:25:46;;;;;;;1.90;1.30;;;;;;;14.18;48.98;93745.78;530435;27;836;-49
2023/10/10 00:26:04;;;;;;;2.13;1.30;;;;;;;14.17;48.93;93745.03;530229;27;1280;-47
2023/10/10 00:26:23;;;;;;;4.95;1.50;;;;;;;14.18;49.04;93745.78;530353;27;1825;-49
2023/10/10 00:26:42;;;;;;;7.63;1.92;;;;;;;14.18;49.12;93740.22;530416;27;888;-48
2023/10/10 00:27:23;;;;;;;2.38;1.75;;;;;;;14.19;49.28;93741.69;530417;27;895;-48
2023/10/10 00:27:39;;;;;;;2.00;1.35;;;;;;;14.19;49.23;93738.91;529685;27;1341;-49
2023/10/10 00:27:59;;;;;;;2.25;1.35;;;;;;;14.19;49.21;93739.66;530349;27;867;-50
2023/10/10 00:28:21;;;;;;;1.98;1.33;;;;;;;14.19;49.34;93734.09;530330;27;925;-48
2023/10/10 00:28:37;;;;;;;1.92;1.15;;;;;;;14.18;49.33;93740.22;530323;27;1623;-49
2023/10/10 00:28:55;;;;;;;0.98;0.90;;;;;;;14.15;49.56;93739.31;530385;27;873;-48
2023/10/10 00:29:11;;;;;;;1.60;1.05;;;;;;;14.13;49.59;93733.59;530315;27;935;-47
2023/10/10 00:29:28;;;;;;;1.73;1.10;;;;;;;13.91;49.55;93703.16;530415;27;809;-48
2023/10/10 00:29:44;;;;;;;2.05;1.50;;;;;;;14.12;49.70;93731.38;530293;27;1123;-49
2023/10/10 00:30:00;;;;;;;4.20;1.80;;;;;;;14.12;49.56;93737.66;530321;27;877;-49
2023/10/10 00:30:16;;;;;;;3.47;1.25;;;;;;;14.11;49.51;93733.41;530362;27;908;-48
2023/10/10 00:30:42;;;;;;;1.63;1.20;;;;;;;14.09;49.54;93727.69;530354;27;796;-48
2023/10/10 00:30:58;;;;;;;1.42;1.33;;;;;;;14.11;49.67;93741.00;530396;27;863;-49
2023/10/10 00:31:18;;;;;;;1.13;1.03;;;;;;;14.11;49.66;93738.22;530374;27;876;-49
2023/10/10 00:31:33;;;;;;;1.25;1.10;;;;;;;14.10;49.55;93739.50;530279;27;1106;-48
2023/10/10 00:31:55;;;;;;;1.70;1.35;;;;;;;14.02;49.55;93724.94;530327;27;936;-48
2023/10/10 00:32:22;;;;;;;3.70;1.70;;;;;;;14.09;49.31;93732.50;530392;27;868;-47
2023/10/10 00:32:42;;;;;;;2.15;1.42;;;;;;;14.09;49.17;93729.72;530401;27;931;-47
2023/10/10 00:32:57;;;;;;;2.83;1.50;;;;;;;14.06;49.23;93725.28;530374;27;832;-48
2023/10/10 00:33:16;;;;;;;2.10;1.27;;;;;;;14.09;49.17;93740.81;530338;27;939;-48
2023/10/10 00:33:31;;;;;;;1.88;1.10;;;;;;;14.08;48.97;93737.31;530398;27;862;-48
2023/10/10 00:33:50;;;;;;;1.87;1.40;;;;;;;14.08;48.97;93742.13;530353;27;794;-50
2023/10/10 00:34:07;;;;;;;1.73;1.30;;;;;;;14.06;48.92;93739.16;530366;28;887;-49
2023/10/10 00:34:24;;;;;;;2.60;1.15;;;;;;;14.03;48.55;93729.94;530380;27;1105;-49
2023/10/10 00:34:39;;;;;;;2.37;1.17;;;;;;;14.05;48.36;93730.13;530400;27;951;-48
2023/10/10 00:34:55;;;;;;;1.85;1.20;;;;;;;14.03;48.23;93727.19;530288;27;808;-49
2023/10/10 00:35:11;;;;;;;1.27;1.17;;;;;;;14.05;48.63;93726.59;530383;27;855;-48
2023/10/10 00:35:27;;;;;;;1.30;1.20;;;;;;;14.04;48.92;93720.31;530355;27;857;-49
2023/10/10 00:35:44;;;;;;;1.80;1.27;;;;;;;14.04;48.50;93728.63;530323;27;868;-47
2023/10/10 00:36:00;;;;;;;1.67;1.25;;;;;;;14.01;48.74;93731.81;530438;27;887;-47
2023/10/10 00:36:36;;;;;;;2.03;1.20;;;;;;;13.99;48.88;93729.59;530389;27;805;-48
2023/10/10 00:36:51;;;;;;;1.98;1.27;;;;;;;13.95;49.32;93722.94;529893;27;1890;-47
2023/10/10 00:37:12;;;;;;;1.58;1.33;;;;;;;13.91;49.18;93717.06;530325;27;912;-50
2023/10/10 00:37:34;;;;;;;1.40;1.20;;;;;;;13.79;49.02;93704.91;530354;27;943;-49
2023/10/10 00:37:50;;;;;;;3.40;1.30;;;;;;;13.99;48.99;93737.19;530431;27;836;-49
2023/10/10 00:38:06;;;;;;;3.07;1.10;;;;;;;13.97;48.78;93737.03;530352;27;1039;-49
2023/10/10 00:38:24;;;;;;;1.45;1.10;;;;;;;13.97;48.88;93734.25;528045;28;1056;-48
2023/10/10 00:38:41;;;;;;;1.30;1.17;;;;;;;13.99;48.90;93745.53;526056;28;998;-48
2023/10/10 00:39:30;;;;;;;2.00;1.20;;;;;;;13.98;48.75;93735.72;526044;28;883;-48
2023/10/10 00:39:52;;;;;;;3.22;1.23;;;;;;;13.98;48.45;93739.22;525978;28;926;-48
2023/10/10 00:40:09;;;;;;;1.67;1.42;;;;;;;13.97;48.35;93740.50;525952;28;943;-49
2023/10/10 00:40:31;;;;;;;1.60;1.50;;;;;;;13.97;48.51;93737.75;528349;28;900;-51
2023/10/10 00:40:47;;;;;;;2.58;1.58;;;;;;;13.98;48.53;93744.78;530314;27;900;-48
2023/10/10 00:41:09;;;;;;;3.75;1.52;;;;;;;13.91;48.41;93730.94;530339;27;928;-48
2023/10/10 00:41:26;;;;;;;2.00;1.70;;;;;;;13.99;48.46;93737.19;530276;27;861;-49
2023/10/10 00:41:51;;;;;;;1.98;1.65;;;;;;;13.97;48.29;93732.19;530369;27;821;-48
2023/10/10 00:42:13;;;;;;;2.63;1.67;;;;;;;13.98;48.21;93733.69;530355;27;872;-48
2023/10/10 00:42:41;;;;;;;2.22;1.48;;;;;;;13.98;48.42;93738.47;530422;27;1016;-49
2023/10/10 00:43:04;;;;;;;1.85;1.65;;;;;;;13.96;48.27;93730.72;527970;28;952;-48
2023/10/10 00:43:23;;;;;;;2.22;1.80;;;;;;;13.96;48.36;93730.72;528123;28;956;-48
2023/10/10 00:43:38;;;;;;;3.22;2.00;;;;;;;13.94;48.27;93730.56;528114;28;887;-49
2023/10/10 00:43:53;;;;;;;2.73;1.70;;;;;;;13.94;48.30;93730.56;528073;28;785;-49
2023/10/10 00:44:12;;;;;;;2.22;1.67;;;;;;;13.90;48.26;93730.22;528116;28;896;-48
2023/10/10 00:44:28;;;;;;;2.95;1.73;;;;;;;13.94;48.27;93729.81;528099;28;836;-49
2023/10/10 00:44:44;;;;;;;2.60;1.70;;;;;;;13.94;48.28;93738.13;528063;28;825;-48
2023/10/10 00:45:04;;;;;;;2.83;1.65;;;;;;;13.93;48.58;93731.84;530380;27;954;-49
2023/10/10 00:45:21;;;;;;;3.10;1.50;;;;;;;13.94;48.28;93732.59;530367;27;840;-48
2023/10/10 00:45:36;;;;;;;2.25;1.40;;;;;;;13.91;48.46;93723.34;530365;27;897;-48
2023/10/10 00:45:52;;;;;;;2.00;1.40;;;;;;;13.94;48.44;93724.25;530340;27;841;-49
2023/10/10 00:46:11;;;;;;;2.65;1.80;;;;;;;13.93;48.64;93729.06;530267;27;1094;-48
2023/10/10 00:46:28;;;;;;;3.58;1.92;;;;;;;13.94;48.66;93727.78;529962;27;2484;-47
2023/10/10 00:46:47;;;;;;;2.88;1.90;;;;;;;13.96;48.73;93729.97;528193;28;916;-49
2023/10/10 00:47:03;;;;;;;2.75;1.73;;;;;;;13.96;48.79;93730.72;525967;28;884;-48
2023/10/10 00:47:21;;;;;;;2.25;1.70;;;;;;;13.93;48.79;93728.31;523872;28;908;-48
2023/10/10 00:47:43;;;;;;;1.98;1.40;;;;;;;13.96;48.73;93729.97;523875;28;929;-48
2023/10/10 00:48:00;;;;;;;1.70;1.42;;;;;;;13.94;48.36;93732.59;523879;28;870;-49
2023/10/10 00:48:17;;;;;;;1.83;1.50;;;;;;;13.93;48.88;93728.31;523892;28;873;-48
2023/10/10 00:48:34;;;;;;;1.83;1.33;;;;;;;13.93;48.41;93722.78;523866;28;924;-48
2023/10/10 00:48:54;;;;;;;2.28;1.60;;;;;;;13.91;48.51;93726.13;524348;28;890;-48
2023/10/10 00:49:13;;;;;;;3.75;1.98;;;;;;;13.93;48.65;93728.31;523963;28;1007;-51
2023/10/10 00:49:31;;;;;;;4.93;1.90;;;;;;;13.93;48.61;93731.84;521888;28;912;-47
2023/10/10 00:49:46;;;;;;;4.55;1.85;;;;;;;13.88;48.67;93718.91;521793;28;876;-49
2023/10/10 00:50:02;;;;;;;3.47;1.57;;;;;;;13.91;48.63;93733.72;521895;28;809;-49
2023/10/10 00:50:18;;;;;;;1.50;1.40;;;;;;;13.91;48.82;93728.91;519647;28;929;-47
2023/10/10 00:50:34;;;;;;;1.70;1.48;;;;;;;13.91;48.90;93728.16;519770;28;900;-51
2023/10/10 00:50:52;;;;;;;2.95;1.67;;;;;;;13.90;49.09;93726.69;519718;28;969;-49
2023/10/10 00:51:11;;;;;;;2.58;1.63;;;;;;;13.91;48.90;93730.94;521746;28;960;-49
2023/10/10 00:51:30;;;;;;;2.40;1.50;;;;;;;13.92;48.90;93730.38;521797;28;905;-48
2023/10/10 00:51:47;;;;;;;1.88;1.50;;;;;;;13.90;48.86;93721.16;521786;28;852;-50
2023/10/10 00:52:06;;;;;;;1.83;1.60;;;;;;;13.91;48.71;93723.34;523736;28;873;-48
2023/10/10 00:52:22;;;;;;;1.65;1.45;;;;;;;13.83;48.67;93714.34;523934;28;795;-48
2023/10/10 00:52:41;;;;;;;2.20;1.40;;;;;;;13.92;48.76;93727.59;521785;28;833;-48
2023/10/10 00:52:56;;;;;;;1.80;1.27;;;;;;;13.92;49.01;93722.06;521764;28;889;-47
2023/10/10 00:53:15;;;;;;;2.27;1.40;;;;;;;13.92;48.83;93724.84;522801;28;1146;-48
2023/10/10 00:53:35;;;;;;;3.17;1.75;;;;;;;13.94;48.79;93718.72;526017;28;982;-48
2023/10/10 00:54:09;;;;;;;2.75;1.88;;;;;;;13.95;48.78;93731.28;525997;28;908;-50
2023/10/10 00:54:26;;;;;;;2.85;1.40;;;;;;;13.95;48.96;93722.94;526069;28;872;-51
2023/10/10 00:54:45;;;;;;;1.95;1.50;;;;;;;13.95;48.79;93720.91;528067;28;816;-47
2023/10/10 00:55:00;;;;;;;2.67;1.58;;;;;;;13.94;48.82;93716.69;528006;28;893;-47
2023/10/10 00:55:22;;;;;;;2.22;1.42;;;;;;;13.93;49.09;93720.00;528034;28;786;-48
2023/10/10 00:55:39;;;;;;;1.98;1.25;;;;;;;13.96;48.75;93724.44;526001;28;963;-48
2023/10/10 00:55:56;;;;;;;2.20;1.40;;;;;;;13.95;48.78;93717.41;524141;28;858;-49
2023/10/10 00:56:13;;;;;;;2.17;1.50;;;;;;;13.94;48.62;93721.47;525961;28;1023;-49
2023/10/10 00:56:29;;;;;;;2.33;1.52;;;;;;;13.84;48.72;93706.75;526027;28;885;-49
2023/10/10 00:56:45;;;;;;;4.57;1.40;;;;;;;13.90;48.58;93721.16;525901;28;1976;-47
2023/10/10 00:57:03;;;;;;;4.77;1.50;;;;;;;13.89;48.50;93720.41;523921;28;796;-48
2023/10/10 00:57:19;;;;;;;2.43;1.60;;;;;;;13.81;48.47;93708.63;521917;28;1500;-48
2023/10/10 00:57:38;;;;;;;2.45;1.33;;;;;;;13.80;48.64;93709.91;523834;28;849;-49
2023/10/10 00:57:58;;;;;;;2.35;1.50;;;;;;;13.86;48.55;93726.34;525806;28;870;-49
2023/10/10 00:58:15;;;;;;;2.47;1.75;;;;;;;13.85;48.68;93719.31;525955;28;896;-48
2023/10/10 00:58:36;;;;;;;4.15;1.85;;;;;;;13.83;48.87;93719.13;523879;28;995;-50
2023/10/10 00:58:53;;;;;;;3.90;1.60;;;;;;;13.84;48.84;93723.41;524594;28;960;-48
2023/10/10 00:59:09;;;;;;;3.78;1.50;;;;;;;13.83;48.96;93716.38;526512;28;894;-48
2023/10/10 00:59:34;;;;;;;1.45;1.30;;;;;;;13.84;48.81;93718.56;528010;28;1699;-49
2023/10/10 00:59:54;;;;;;;2.60;1.60;;;;;;;13.84;48.87;93718.56;528117;28;915;-49
2023/10/10 01:00:13;;;;;;;2.30;1.60;;;;;;;13.85;48.77;93724.88;528095;28;896;-48
2023/10/10 01:00:32;;;;;;;2.38;1.50;;;;;;;13.86;48.94;93718.75;529841;27;904;-48
2023/10/10 01:00:49;;;;;;;1.50;1.40;;;;;;;13.87;48.96;93719.47;530300;27;908;-48
2023/10/10 01:01:09;;;;;;;1.80;1.20;;;;;;;13.88;48.66;93726.53;530242;27;876;-48
2023/10/10 01:01:25;;;;;;;1.50;1.15;;;;;;;13.87;48.89;93716.72;530292;27;970;-50
2023/10/10 01:01:41;;;;;;;2.00;1.45;;;;;;;13.91;48.86;93722.59;530336;27;912;-48
2023/10/10 01:01:56;;;;;;;3.03;1.63;;;;;;;13.91;48.74;93722.59;530286;27;876;-48
2023/10/10 01:02:14;;;;;;;4.27;1.73;;;;;;;13.92;48.69;93721.31;530332;27;893;-48
2023/10/10 01:02:29;;;;;;;1.73;1.40;;;;;;;13.93;48.73;93723.53;530290;27;935;-48
2023/10/10 01:02:45;;;;;;;1.63;1.53;;;;;;;13.90;48.72;93723.91;530309;27;854;-49
2023/10/10 01:03:19;;;;;;;1.70;1.60;;;;;;;13.87;48.71;93723.00;530270;27;891;-48
2023/10/10 01:03:43;;;;;;;2.25;1.60;;;;;;;13.84;48.76;93720.63;530229;27;868;-50
2023/10/10 01:03:59;;;;;;;1.65;1.38;;;;;;;13.76;48.76;93706.78;530362;27;841;-49
2023/10/10 01:04:16;;;;;;;2.10;1.67;;;;;;;13.84;48.86;93720.63;530294;27;808;-48
2023/10/10 01:05:12;;;;;;;2.03;1.65;;;;;;;13.84;48.75;93724.13;530271;27;903;-49
2023/10/10 01:05:25;;;;;;;2.30;1.60;;;;;;;13.84;49.09;93723.41;529292;27;1464;-48
2023/10/10 01:05:52;;;;;;;2.83;1.50;;;;;;;13.76;48.96;93704.00;530228;27;948;-48
2023/10/10 01:06:14;;;;;;;2.13;1.33;;;;;;;13.85;49.23;93720.06;530339;27;891;-49
2023/10/10 01:06:31;;;;;;;2.30;1.27;;;;;;;13.85;49.03;93720.06;530362;27;999;-48
2023/10/10 01:06:51;;;;;;;2.50;1.30;;;;;;;13.87;49.06;93719.47;530284;27;801;-47
2023/10/10 01:07:07;;;;;;;3.10;1.65;;;;;;;13.86;49.05;93718.75;530308;27;915;-48
2023/10/10 01:07:25;;;;;;;3.95;1.77;;;;;;;13.90;49.13;93718.38;530220;27;931;-48
2023/10/10 01:07:47;;;;;;;3.15;1.42;;;;;;;13.91;48.98;93717.06;530346;27;939;-50
2023/10/10 01:08:03;;;;;;;1.38;1.27;;;;;;;13.94;49.01;93721.47;530307;27;897;-48
2023/10/10 01:08:19;;;;;;;1.63;1.40;;;;;;;13.96;49.14;93722.41;530400;27;876;-48
2023/10/10 01:08:55;;;;;;;1.60;1.40;;;;;;;13.99;48.99;93720.53;530281;27;863;-49
2023/10/10 01:09:20;;;;;;;3.47;1.80;;;;;;;14.00;49.00;93713.66;530251;27;904;-48
2023/10/10 01:10:22;;;;;;;1.95;1.40;;;;;;;14.03;49.02;93715.31;519588;28;1262;-49
2023/10/10 01:10:43;;;;;;;1.60;1.50;;;;;;;14.03;49.08;93718.09;519491;28;855;-49
2023/10/10 01:10:43;;;;;;;1.75;1.58;;;;;;;14.01;48.89;93715.88;528193;28;885;-49
2023/10/10 01:11:03;;;;;;;2.65;1.35;;;;;;;14.03;49.21;93716.06;528102;28;1453;-50
2023/10/10 01:11:19;;;;;;;1.80;1.70;;;;;;;13.98;49.19;93711.47;528138;28;893;-51
2023/10/10 01:11:35;;;;;;;1.58;1.48;;;;;;;14.03;49.39;93718.09;528049;28;948;-49
2023/10/10 01:11:50;;;;;;;1.30;1.20;;;;;;;14.03;49.59;93718.84;528242;28;834;-51
2023/10/10 01:12:06;;;;;;;1.30;1.20;;;;;;;14.03;49.65;93718.09;528188;28;870;-50
2023/10/10 01:12:28;;;;;;;2.88;1.13;;;;;;;14.03;49.71;93718.84;528117;28;1775;-48
2023/10/10 01:12:46;;;;;;;2.00;1.10;;;;;;;14.03;49.63;93718.09;528102;28;889;-48
2023/10/10 01:13:02;;;;;;;1.30;1.10;;;;;;;14.03;49.76;93718.09;528179;28;1099;-48
2023/10/10 01:13:19;;;;;;;1.98;1.45;;;;;;;14.03;49.87;93718.09;528221;28;988;-47
2023/10/10 01:13:34;;;;;;;1.80;1.50;;;;;;;14.04;49.85;93722.34;528140;28;873;-48
2023/10/10 01:13:56;;;;;;;1.83;1.43;;;;;;;14.04;49.77;93719.56;528181;28;865;-49
2023/10/10 01:14:18;;;;;;;2.08;1.48;;;;;;;14.05;50.11;93721.06;528202;28;941;-48
2023/10/10 01:14:33;;;;;;;1.95;1.25;;;;;;;14.06;49.94;93719.72;528113;28;1083;-49
2023/10/10 01:15:00;;;;;;;1.10;1.00;;;;;;;14.06;50.09;93716.97;528212;28;846;-49
2023/10/10 01:15:24;;;;;;;1.60;1.25;;;;;;;14.07;50.14;93721.22;528065;28;966;-49
2023/10/10 01:15:48;;;;;;;1.92;1.27;;;;;;;14.07;50.00;93715.66;528159;28;850;-47
2023/10/10 01:16:05;;;;;;;1.13;1.02;;;;;;;14.06;50.17;93712.16;528093;28;983;-48
2023/10/10 01:16:24;;;;;;;1.40;1.20;;;;;;;14.00;49.96;93717.19;528259;28;864;-49
2023/10/10 01:16:39;;;;;;;3.60;1.20;;;;;;;13.97;50.12;93714.81;528058;28;1975;-49
2023/10/10 01:16:57;;;;;;;3.17;1.30;;;;;;;13.90;50.00;93707.25;528057;28;1286;-48
2023/10/10 01:17:13;;;;;;;1.50;1.30;;;;;;;13.91;50.22;93711.50;528071;28;924;-48
2023/10/10 01:17:29;;;;;;;1.55;1.33;;;;;;;13.91;50.10;93712.25;528256;28;789;-48
2023/10/10 01:17:45;;;;;;;1.58;1.30;;;;;;;13.91;50.40;93722.59;528063;28;920;-48
2023/10/10 01:18:00;;;;;;;1.35;1.20;;;;;;;13.90;50.11;93716.34;528226;28;797;-47
2023/10/10 01:18:17;;;;;;;1.33;1.23;;;;;;;13.91;50.31;93717.78;528088;28;1107;-49
2023/10/10 01:18:51;;;;;;;1.65;1.40;;;;;;;13.69;50.38;93688.88;528138;28;885;-48
2023/10/10 01:19:08;;;;;;;2.63;1.20;;;;;;;13.91;50.21;93717.06;528092;28;955;-50
2023/10/10 01:19:30;;;;;;;3.13;1.00;;;;;;;13.91;50.37;93722.59;528121;28;955;-50
2023/10/10 01:19:46;;;;;;;2.55;1.08;;;;;;;13.91;50.48;93725.38;528145;28;840;-49
2023/10/10 01:20:13;;;;;;;3.07;1.40;;;;;;;13.93;50.33;93717.22;528117;28;877;-49
2023/10/10 01:20:45;;;;;;;2.22;1.42;;;;;;;13.94;50.43;93724.25;528211;28;883;-49
2023/10/10 01:21:02;;;;;;;2.92;1.00;;;;;;;13.95;50.49;93717.41;528158;28;860;-48
2023/10/10 01:21:28;;;;;;;1.92;1.08;;;;;;;13.95;50.25;93720.16;528114;28;936;-48
2023/10/10 01:21:50;;;;;;;3.20;1.23;;;;;;;13.97;50.47;93714.81;528127;28;1745;-48
2023/10/10 01:22:22;;;;;;;1.70;1.13;;;;;;;13.96;50.60;93718.88;528139;28;841;-48
2023/10/10 01:22:39;;;;;;;1.73;1.30;;;;;;;13.94;50.54;93718.72;528042;28;933;-48
2023/10/10 01:22:56;;;;;;;1.60;1.15;;;;;;;13.95;50.51;93717.41;528141;28;895;-49
2023/10/10 01:23:14;;;;;;;1.25;0.95;;;;;;;13.95;50.42;93717.41;528141;28;971;-49
2023/10/10 01:23:33;;;;;;;1.20;1.10;;;;;;;13.95;50.27;93718.13;528696;28;1098;-48
2023/10/10 01:23:48;;;;;;;1.05;1.02;;;;;;;13.95;50.44;93718.13;530002;28;856;-48
2023/10/10 01:24:07;;;;;;;2.20;1.10;;;;;;;13.95;50.41;93715.38;528298;28;1171;-48
2023/10/10 01:24:23;;;;;;;2.20;1.10;;;;;;;13.97;50.30;93717.59;529506;28;1209;-49
2023/10/10 01:24:40;;;;;;;1.37;1.10;;;;;;;13.96;50.55;93719.63;530366;28;797;-48
2023/10/10 01:24:56;;;;;;;1.63;1.23;;;;;;;13.91;50.31;93711.50;530253;27;868;-48
2023/10/10 01:25:41;;;;;;;1.40;1.10;;;;;;;13.95;50.32;93720.16;530307;27;924;-48
2023/10/10 01:26:05;;;;;;;4.53;1.30;;;;;;;13.96;50.37;93721.66;530018;27;1289;-49
2023/10/10 01:26:28;;;;;;;2.28;1.27;;;;;;;13.96;50.62;93725.19;530288;27;950;-48
2023/10/10 01:26:47;;;;;;;2.72;1.15;;;;;;;13.85;50.68;93708.94;530270;28;861;-48
2023/10/10 01:27:13;;;;;;;2.85;1.38;;;;;;;13.95;50.38;93711.84;530263;27;896;-48
2023/10/10 01:27:31;;;;;;;1.48;1.33;;;;;;;13.95;50.31;93726.47;530349;28;939;-49
2023/10/10 01:27:46;;;;;;;1.48;1.20;;;;;;;13.94;50.22;93725.00;530181;28;889;-48
2023/10/10 01:28:13;;;;;;;2.90;1.10;;;;;;;13.94;50.39;93722.22;530345;28;801;-49
2023/10/10 01:28:35;;;;;;;1.17;1.00;;;;;;;13.94;50.42;93721.47;530269;28;955;-48
2023/10/10 01:28:50;;;;;;;1.50;1.30;;;;;;;13.94;50.43;93718.72;530294;28;888;-48
2023/10/10 01:29:56;;;;;;;1.45;1.33;;;;;;;13.96;50.63;93729.97;523735;28;1343;-48
2023/10/10 01:30:43;;;;;;;2.25;1.40;;;;;;;13.94;50.47;93722.22;523651;28;1269;-47
2023/10/10 01:31:11;;;;;;;1.60;1.20;;;;;;;13.95;50.68;93717.41;523781;28;742;-48
2023/10/10 01:31:30;;;;;;;1.60;1.35;;;;;;;13.95;50.58;93717.41;523680;28;854;-49
2023/10/10 01:31:45;;;;;;;1.85;1.30;;;;;;;13.95;50.77;93720.16;524562;28;1162;-49
2023/10/10 01:32:02;;;;;;;2.40;1.20;;;;;;;13.93;50.78;93712.41;530257;28;880;-48
2023/10/10 01:32:18;;;;;;;2.15;1.13;;;;;;;13.95;50.86;93714.63;530293;28;845;-48
2023/10/10 01:32:38;;;;;;;1.58;1.08;;;;;;;13.96;50.77;93716.09;530258;28;877;-49
2023/10/10 01:32:53;;;;;;;2.70;1.20;;;;;;;13.94;50.94;93716.69;530244;28;916;-49
2023/10/10 01:33:16;;;;;;;2.95;1.20;;;;;;;13.97;51.17;93714.81;530333;28;947;-48
2023/10/10 01:33:50;;;;;;;2.33;1.40;;;;;;;13.97;50.76;93715.53;530334;28;702;-47
2023/10/10 01:34:09;;;;;;;2.80;1.53;;;;;;;13.98;50.64;93713.50;530198;28;868;-48
2023/10/10 01:34:32;;;;;;;2.20;1.40;;;;;;;13.97;50.62;93720.38;530219;28;940;-48
2023/10/10 01:34:47;;;;;;;2.60;1.20;;;;;;;13.96;50.71;93718.88;530234;28;1065;-50
2023/10/10 01:35:08;;;;;;;1.27;1.08;;;;;;;13.94;50.96;93721.47;530246;28;885;-48
2023/10/10 01:35:24;;;;;;;2.38;1.27;;;;;;;13.89;50.72;93720.41;530205;28;939;-49
2023/10/10 01:35:40;;;;;;;2.13;1.40;;;;;;;13.84;50.69;93715.78;530308;28;845;-48
2023/10/10 01:36:03;;;;;;;2.20;1.27;;;;;;;13.89;50.81;93723.19;530228;28;755;-47
2023/10/10 01:36:22;;;;;;;1.90;1.00;;;;;;;13.89;50.69;93720.41;530302;28;851;-48